sensor_id;sensor_type;location;lat;lon;timestamp;P1;durP1;ratioP1;P2;durP2;ratioP2
8086;SDS011;4086;54.412;9.980;2022-08-01T00:01:23;17.37;;;13.60;;
8086;SDS011;4086;54.412;9.980;2022-08-01T00:03:50;15.93;;;14.27;;
8086;SDS011;4086;54.412;9.980;2022-08-01T00:06:17;15.50;;;13.57;;
8086;SDS011;4086;54.412;9.980;2022-08-01T00:08:43;14.30;;;12.17;;
8086;SDS011;4086;54.412;9.980;2022-08-01T00:11:10;17.23;;;13.17;;
8086;SDS011;4086;54.412;9.980;2022-08-01T00:13:38;14.60;;;12.07;;
8086;SDS011;4086;54.412;9.980;2022-08-01T00:16:05;17.43;;;15.10;;
8086;SDS011;4086;54.412;9.980;2022-08-01T00:18:31;20.63;;;16.03;;
8086;SDS011;4086;54.412;9.980;2022-08-01T00:20:59;15.40;;;13.53;;
8086;SDS011;4086;54.412;9.980;2022-08-01T00:23:25;21.17;;;17.20;;
8086;SDS011;4086;54.412;9.980;2022-08-01T00:25:52;17.17;;;13.97;;
8086;SDS011;4086;54.412;9.980;2022-08-01T00:28:19;22.87;;;17.23;;
8086;SDS011;4086;54.412;9.980;2022-08-01T00:30:46;19.37;;;14.70;;
8086;SDS011;4086;54.412;9.980;2022-08-01T00:33:13;17.67;;;14.50;;
8086;SDS011;4086;54.412;9.980;2022-08-01T00:35:39;17.20;;;14.90;;
8086;SDS011;4086;54.412;9.980;2022-08-01T00:38:06;24.83;;;17.27;;
8086;SDS011;4086;54.412;9.980;2022-08-01T00:40:32;20.17;;;15.87;;
8086;SDS011;4086;54.412;9.980;2022-08-01T00:42:58;19.70;;;15.50;;
8086;SDS011;4086;54.412;9.980;2022-08-01T00:45:25;22.90;;;17.93;;
8086;SDS011;4086;54.412;9.980;2022-08-01T00:47:53;26.10;;;17.47;;
8086;SDS011;4086;54.412;9.980;2022-08-01T00:50:19;24.60;;;16.97;;
8086;SDS011;4086;54.412;9.980;2022-08-01T00:52:46;23.57;;;16.73;;
8086;SDS011;4086;54.412;9.980;2022-08-01T00:55:12;28.47;;;16.90;;
8086;SDS011;4086;54.412;9.980;2022-08-01T00:57:40;24.67;;;16.03;;
8086;SDS011;4086;54.412;9.980;2022-08-01T01:00:06;23.53;;;16.67;;
8086;SDS011;4086;54.412;9.980;2022-08-01T01:02:34;24.37;;;15.67;;
8086;SDS011;4086;54.412;9.980;2022-08-01T01:05:02;27.47;;;18.23;;
8086;SDS011;4086;54.412;9.980;2022-08-01T01:07:31;24.47;;;15.80;;
8086;SDS011;4086;54.412;9.980;2022-08-01T01:10:02;23.50;;;16.57;;
8086;SDS011;4086;54.412;9.980;2022-08-01T01:12:31;23.43;;;15.93;;
8086;SDS011;4086;54.412;9.980;2022-08-01T01:15:02;26.90;;;17.50;;
8086;SDS011;4086;54.412;9.980;2022-08-01T01:17:33;19.63;;;14.70;;
8086;SDS011;4086;54.412;9.980;2022-08-01T01:20:04;22.37;;;15.33;;
8086;SDS011;4086;54.412;9.980;2022-08-01T01:22:38;23.83;;;16.30;;
8086;SDS011;4086;54.412;9.980;2022-08-01T01:25:18;21.80;;;15.50;;
8086;SDS011;4086;54.412;9.980;2022-08-01T01:27:57;22.63;;;15.07;;
8086;SDS011;4086;54.412;9.980;2022-08-01T01:30:30;25.90;;;16.70;;
8086;SDS011;4086;54.412;9.980;2022-08-01T01:32:58;26.23;;;17.87;;
8086;SDS011;4086;54.412;9.980;2022-08-01T01:35:28;24.33;;;16.13;;
8086;SDS011;4086;54.412;9.980;2022-08-01T01:37:58;21.00;;;14.93;;
8086;SDS011;4086;54.412;9.980;2022-08-01T01:40:26;25.83;;;16.07;;
8086;SDS011;4086;54.412;9.980;2022-08-01T01:42:54;23.27;;;14.93;;
8086;SDS011;4086;54.412;9.980;2022-08-01T01:45:21;22.80;;;15.03;;
8086;SDS011;4086;54.412;9.980;2022-08-01T01:47:51;20.30;;;14.10;;
8086;SDS011;4086;54.412;9.980;2022-08-01T01:50:20;24.13;;;14.87;;
8086;SDS011;4086;54.412;9.980;2022-08-01T01:52:47;22.43;;;14.97;;
8086;SDS011;4086;54.412;9.980;2022-08-01T01:55:15;21.60;;;13.90;;
8086;SDS011;4086;54.412;9.980;2022-08-01T01:57:42;20.37;;;14.73;;
8086;SDS011;4086;54.412;9.980;2022-08-01T02:00:10;19.23;;;14.10;;
8086;SDS011;4086;54.412;9.980;2022-08-01T02:02:37;16.70;;;13.37;;
8086;SDS011;4086;54.412;9.980;2022-08-01T02:05:05;17.03;;;12.60;;
8086;SDS011;4086;54.412;9.980;2022-08-01T02:07:32;19.97;;;13.53;;
8086;SDS011;4086;54.412;9.980;2022-08-01T02:10:01;16.77;;;13.43;;
8086;SDS011;4086;54.412;9.980;2022-08-01T02:12:29;17.73;;;13.17;;
8086;SDS011;4086;54.412;9.980;2022-08-01T02:14:55;21.43;;;15.67;;
8086;SDS011;4086;54.412;9.980;2022-08-01T02:17:23;19.10;;;13.10;;
8086;SDS011;4086;54.412;9.980;2022-08-01T02:19:51;15.07;;;11.80;;
8086;SDS011;4086;54.412;9.980;2022-08-01T02:22:21;18.10;;;13.20;;
8086;SDS011;4086;54.412;9.980;2022-08-01T02:24:52;19.37;;;13.87;;
8086;SDS011;4086;54.412;9.980;2022-08-01T02:27:23;19.50;;;12.60;;
8086;SDS011;4086;54.412;9.980;2022-08-01T02:29:53;12.63;;;11.03;;
8086;SDS011;4086;54.412;9.980;2022-08-01T02:32:23;14.77;;;12.03;;
8086;SDS011;4086;54.412;9.980;2022-08-01T02:34:51;14.57;;;11.40;;
8086;SDS011;4086;54.412;9.980;2022-08-01T02:37:19;12.63;;;11.10;;
8086;SDS011;4086;54.412;9.980;2022-08-01T02:39:47;14.70;;;12.50;;
8086;SDS011;4086;54.412;9.980;2022-08-01T02:42:14;13.80;;;11.67;;
8086;SDS011;4086;54.412;9.980;2022-08-01T02:44:41;14.23;;;11.57;;
8086;SDS011;4086;54.412;9.980;2022-08-01T02:47:08;17.30;;;12.83;;
8086;SDS011;4086;54.412;9.980;2022-08-01T02:49:36;17.80;;;12.00;;
8086;SDS011;4086;54.412;9.980;2022-08-01T02:52:06;18.00;;;13.27;;
8086;SDS011;4086;54.412;9.980;2022-08-01T02:54:36;19.13;;;13.70;;
8086;SDS011;4086;54.412;9.980;2022-08-01T02:57:03;17.67;;;12.93;;
8086;SDS011;4086;54.412;9.980;2022-08-01T02:59:30;15.23;;;12.77;;
8086;SDS011;4086;54.412;9.980;2022-08-01T03:01:58;19.33;;;14.60;;
8086;SDS011;4086;54.412;9.980;2022-08-01T03:04:26;18.67;;;14.40;;
8086;SDS011;4086;54.412;9.980;2022-08-01T03:06:54;18.87;;;13.63;;
8086;SDS011;4086;54.412;9.980;2022-08-01T03:09:23;18.63;;;14.23;;
8086;SDS011;4086;54.412;9.980;2022-08-01T03:11:52;18.80;;;14.27;;
8086;SDS011;4086;54.412;9.980;2022-08-01T03:14:23;17.37;;;13.20;;
8086;SDS011;4086;54.412;9.980;2022-08-01T03:16:51;17.77;;;13.37;;
8086;SDS011;4086;54.412;9.980;2022-08-01T03:19:18;13.67;;;12.20;;
8086;SDS011;4086;54.412;9.980;2022-08-01T03:21:46;18.00;;;14.53;;
8086;SDS011;4086;54.412;9.980;2022-08-01T03:24:14;15.70;;;13.30;;
8086;SDS011;4086;54.412;9.980;2022-08-01T03:26:42;19.77;;;13.43;;
8086;SDS011;4086;54.412;9.980;2022-08-01T03:29:12;17.10;;;12.80;;
8086;SDS011;4086;54.412;9.980;2022-08-01T03:31:40;16.73;;;13.57;;
8086;SDS011;4086;54.412;9.980;2022-08-01T03:34:10;12.93;;;11.53;;
8086;SDS011;4086;54.412;9.980;2022-08-01T03:36:38;13.40;;;11.97;;
8086;SDS011;4086;54.412;9.980;2022-08-01T03:39:09;12.43;;;11.13;;
8086;SDS011;4086;54.412;9.980;2022-08-01T03:41:37;15.07;;;10.43;;
8086;SDS011;4086;54.412;9.980;2022-08-01T03:44:07;11.53;;;9.60;;
8086;SDS011;4086;54.412;9.980;2022-08-01T03:46:40;10.87;;;9.73;;
8086;SDS011;4086;54.412;9.980;2022-08-01T03:49:10;9.83;;;8.50;;
8086;SDS011;4086;54.412;9.980;2022-08-01T03:51:39;11.87;;;8.50;;
8086;SDS011;4086;54.412;9.980;2022-08-01T03:54:06;8.90;;;8.00;;
8086;SDS011;4086;54.412;9.980;2022-08-01T03:56:34;9.33;;;8.40;;
8086;SDS011;4086;54.412;9.980;2022-08-01T03:59:01;7.70;;;7.00;;
8086;SDS011;4086;54.412;9.980;2022-08-01T04:01:28;10.90;;;8.33;;
8086;SDS011;4086;54.412;9.980;2022-08-01T04:03:57;12.20;;;8.37;;
8086;SDS011;4086;54.412;9.980;2022-08-01T04:06:24;8.73;;;7.93;;
8086;SDS011;4086;54.412;9.980;2022-08-01T04:08:50;7.80;;;7.10;;
8086;SDS011;4086;54.412;9.980;2022-08-01T04:11:21;6.97;;;6.37;;
8086;SDS011;4086;54.412;9.980;2022-08-01T04:13:50;6.93;;;6.33;;
8086;SDS011;4086;54.412;9.980;2022-08-01T04:16:17;7.63;;;6.90;;
8086;SDS011;4086;54.412;9.980;2022-08-01T04:18:44;7.50;;;6.40;;
8086;SDS011;4086;54.412;9.980;2022-08-01T04:21:11;7.27;;;6.47;;
8086;SDS011;4086;54.412;9.980;2022-08-01T04:23:39;7.43;;;6.67;;
8086;SDS011;4086;54.412;9.980;2022-08-01T04:26:07;7.23;;;5.97;;
8086;SDS011;4086;54.412;9.980;2022-08-01T04:28:36;6.73;;;6.03;;
8086;SDS011;4086;54.412;9.980;2022-08-01T04:31:04;6.23;;;5.73;;
8086;SDS011;4086;54.412;9.980;2022-08-01T04:33:34;20.77;;;7.33;;
8086;SDS011;4086;54.412;9.980;2022-08-01T04:36:02;7.37;;;6.60;;
8086;SDS011;4086;54.412;9.980;2022-08-01T04:38:32;8.23;;;6.83;;
8086;SDS011;4086;54.412;9.980;2022-08-01T04:41:01;7.13;;;6.53;;
8086;SDS011;4086;54.412;9.980;2022-08-01T04:43:31;6.93;;;6.27;;
8086;SDS011;4086;54.412;9.980;2022-08-01T04:45:58;8.53;;;7.40;;
8086;SDS011;4086;54.412;9.980;2022-08-01T04:48:24;8.47;;;7.67;;
8086;SDS011;4086;54.412;9.980;2022-08-01T04:50:52;9.83;;;8.17;;
8086;SDS011;4086;54.412;9.980;2022-08-01T04:53:19;7.70;;;6.90;;
8086;SDS011;4086;54.412;9.980;2022-08-01T04:55:48;7.93;;;7.20;;
8086;SDS011;4086;54.412;9.980;2022-08-01T04:58:15;9.27;;;8.37;;
8086;SDS011;4086;54.412;9.980;2022-08-01T05:00:41;8.77;;;7.87;;
8086;SDS011;4086;54.412;9.980;2022-08-01T05:03:08;9.10;;;8.17;;
8086;SDS011;4086;54.412;9.980;2022-08-01T05:05:34;9.73;;;8.77;;
8086;SDS011;4086;54.412;9.980;2022-08-01T05:08:01;9.97;;;7.77;;
8086;SDS011;4086;54.412;9.980;2022-08-01T05:10:28;9.37;;;7.03;;
8086;SDS011;4086;54.412;9.980;2022-08-01T05:12:57;8.07;;;7.27;;
8086;SDS011;4086;54.412;9.980;2022-08-01T05:15:23;8.53;;;7.63;;
8086;SDS011;4086;54.412;9.980;2022-08-01T05:17:50;9.50;;;7.20;;
8086;SDS011;4086;54.412;9.980;2022-08-01T05:20:16;8.60;;;7.67;;
8086;SDS011;4086;54.412;9.980;2022-08-01T05:22:43;10.07;;;7.57;;
8086;SDS011;4086;54.412;9.980;2022-08-01T05:25:09;9.63;;;7.10;;
8086;SDS011;4086;54.412;9.980;2022-08-01T05:27:36;7.87;;;7.07;;
8086;SDS011;4086;54.412;9.980;2022-08-01T05:30:07;10.20;;;7.03;;
8086;SDS011;4086;54.412;9.980;2022-08-01T05:32:34;7.57;;;5.97;;
8086;SDS011;4086;54.412;9.980;2022-08-01T05:35:02;8.27;;;6.50;;
8086;SDS011;4086;54.412;9.980;2022-08-01T05:37:29;7.17;;;6.53;;
8086;SDS011;4086;54.412;9.980;2022-08-01T05:39:56;7.50;;;6.07;;
8086;SDS011;4086;54.412;9.980;2022-08-01T05:42:22;7.33;;;6.07;;
8086;SDS011;4086;54.412;9.980;2022-08-01T05:44:49;7.53;;;6.50;;
8086;SDS011;4086;54.412;9.980;2022-08-01T05:47:17;6.03;;;5.43;;
8086;SDS011;4086;54.412;9.980;2022-08-01T05:49:44;5.60;;;5.10;;
8086;SDS011;4086;54.412;9.980;2022-08-01T05:52:11;6.53;;;5.50;;
8086;SDS011;4086;54.412;9.980;2022-08-01T05:54:37;6.53;;;4.93;;
8086;SDS011;4086;54.412;9.980;2022-08-01T05:57:04;4.97;;;4.43;;
8086;SDS011;4086;54.412;9.980;2022-08-01T05:59:31;5.10;;;4.40;;
8086;SDS011;4086;54.412;9.980;2022-08-01T06:01:57;5.50;;;4.43;;
8086;SDS011;4086;54.412;9.980;2022-08-01T06:04:25;5.50;;;4.60;;
8086;SDS011;4086;54.412;9.980;2022-08-01T06:06:51;4.70;;;4.30;;
8086;SDS011;4086;54.412;9.980;2022-08-01T06:09:17;4.47;;;3.97;;
8086;SDS011;4086;54.412;9.980;2022-08-01T06:11:44;4.57;;;4.17;;
8086;SDS011;4086;54.412;9.980;2022-08-01T06:14:11;4.13;;;3.73;;
8086;SDS011;4086;54.412;9.980;2022-08-01T06:16:37;4.07;;;3.40;;
8086;SDS011;4086;54.412;9.980;2022-08-01T06:19:03;3.20;;;2.90;;
8086;SDS011;4086;54.412;9.980;2022-08-01T06:21:31;5.10;;;2.77;;
8086;SDS011;4086;54.412;9.980;2022-08-01T06:23:58;4.07;;;2.93;;
8086;SDS011;4086;54.412;9.980;2022-08-01T06:26:24;2.70;;;2.50;;
8086;SDS011;4086;54.412;9.980;2022-08-01T06:28:51;3.40;;;2.70;;
8086;SDS011;4086;54.412;9.980;2022-08-01T06:31:17;3.77;;;2.53;;
8086;SDS011;4086;54.412;9.980;2022-08-01T06:33:43;4.60;;;2.53;;
8086;SDS011;4086;54.412;9.980;2022-08-01T06:36:10;2.73;;;2.57;;
8086;SDS011;4086;54.412;9.980;2022-08-01T06:38:38;2.57;;;2.23;;
8086;SDS011;4086;54.412;9.980;2022-08-01T06:41:04;2.77;;;2.57;;
8086;SDS011;4086;54.412;9.980;2022-08-01T06:43:30;3.37;;;2.60;;
8086;SDS011;4086;54.412;9.980;2022-08-01T06:45:57;3.30;;;2.40;;
8086;SDS011;4086;54.412;9.980;2022-08-01T06:48:23;2.87;;;2.67;;
8086;SDS011;4086;54.412;9.980;2022-08-01T06:50:51;2.73;;;2.53;;
8086;SDS011;4086;54.412;9.980;2022-08-01T06:53:32;4.00;;;2.40;;
8086;SDS011;4086;54.412;9.980;2022-08-01T06:56:00;4.07;;;2.80;;
8086;SDS011;4086;54.412;9.980;2022-08-01T06:58:27;2.60;;;2.40;;
8086;SDS011;4086;54.412;9.980;2022-08-01T07:00:53;3.97;;;2.53;;
8086;SDS011;4086;54.412;9.980;2022-08-01T07:03:20;8.50;;;3.00;;
8086;SDS011;4086;54.412;9.980;2022-08-01T07:05:46;4.13;;;2.33;;
8086;SDS011;4086;54.412;9.980;2022-08-01T07:08:12;3.83;;;2.30;;
8086;SDS011;4086;54.412;9.980;2022-08-01T07:10:39;6.53;;;2.43;;
8086;SDS011;4086;54.412;9.980;2022-08-01T07:13:06;2.53;;;2.23;;
8086;SDS011;4086;54.412;9.980;2022-08-01T07:15:33;2.60;;;2.30;;
8086;SDS011;4086;54.412;9.980;2022-08-01T07:17:59;4.83;;;2.40;;
8086;SDS011;4086;54.412;9.980;2022-08-01T07:20:28;3.60;;;2.10;;
8086;SDS011;4086;54.412;9.980;2022-08-01T07:22:55;7.37;;;2.50;;
8086;SDS011;4086;54.412;9.980;2022-08-01T07:25:21;3.93;;;2.20;;
8086;SDS011;4086;54.412;9.980;2022-08-01T07:27:48;3.27;;;1.87;;
8086;SDS011;4086;54.412;9.980;2022-08-01T07:30:16;8.17;;;2.20;;
8086;SDS011;4086;54.412;9.980;2022-08-01T07:32:42;3.07;;;2.00;;
8086;SDS011;4086;54.412;9.980;2022-08-01T07:35:09;4.17;;;2.33;;
8086;SDS011;4086;54.412;9.980;2022-08-01T07:37:36;4.03;;;2.10;;
8086;SDS011;4086;54.412;9.980;2022-08-01T07:40:03;5.40;;;2.10;;
8086;SDS011;4086;54.412;9.980;2022-08-01T07:42:30;4.90;;;2.60;;
8086;SDS011;4086;54.412;9.980;2022-08-01T07:44:57;5.27;;;2.67;;
8086;SDS011;4086;54.412;9.980;2022-08-01T07:47:25;4.37;;;2.27;;
8086;SDS011;4086;54.412;9.980;2022-08-01T07:49:52;7.33;;;2.67;;
8086;SDS011;4086;54.412;9.980;2022-08-01T07:52:18;7.27;;;2.37;;
8086;SDS011;4086;54.412;9.980;2022-08-01T07:54:45;6.30;;;2.10;;
8086;SDS011;4086;54.412;9.980;2022-08-01T07:57:11;4.37;;;2.00;;
8086;SDS011;4086;54.412;9.980;2022-08-01T07:59:38;6.73;;;2.40;;
8086;SDS011;4086;54.412;9.980;2022-08-01T08:02:04;4.63;;;1.87;;
8086;SDS011;4086;54.412;9.980;2022-08-01T08:04:33;5.97;;;2.20;;
8086;SDS011;4086;54.412;9.980;2022-08-01T08:06:59;6.87;;;1.90;;
8086;SDS011;4086;54.412;9.980;2022-08-01T08:09:25;6.50;;;2.30;;
8086;SDS011;4086;54.412;9.980;2022-08-01T08:11:52;6.47;;;2.20;;
8086;SDS011;4086;54.412;9.980;2022-08-01T08:14:18;4.73;;;2.10;;
8086;SDS011;4086;54.412;9.980;2022-08-01T08:16:47;7.47;;;2.13;;
8086;SDS011;4086;54.412;9.980;2022-08-01T08:19:14;4.93;;;1.93;;
8086;SDS011;4086;54.412;9.980;2022-08-01T08:21:42;6.43;;;2.07;;
8086;SDS011;4086;54.412;9.980;2022-08-01T08:24:08;5.20;;;2.10;;
8086;SDS011;4086;54.412;9.980;2022-08-01T08:26:49;3.37;;;2.00;;
8086;SDS011;4086;54.412;9.980;2022-08-01T08:29:16;5.20;;;1.90;;
8086;SDS011;4086;54.412;9.980;2022-08-01T08:31:42;2.73;;;1.77;;
8086;SDS011;4086;54.412;9.980;2022-08-01T08:34:09;8.03;;;2.10;;
8086;SDS011;4086;54.412;9.980;2022-08-01T08:36:36;4.90;;;2.10;;
8086;SDS011;4086;54.412;9.980;2022-08-01T08:39:04;4.93;;;2.13;;
8086;SDS011;4086;54.412;9.980;2022-08-01T08:41:31;6.50;;;2.53;;
8086;SDS011;4086;54.412;9.980;2022-08-01T08:43:58;5.10;;;2.00;;
8086;SDS011;4086;54.412;9.980;2022-08-01T08:46:27;5.40;;;1.97;;
8086;SDS011;4086;54.412;9.980;2022-08-01T08:48:54;7.27;;;2.20;;
8086;SDS011;4086;54.412;9.980;2022-08-01T08:51:21;6.30;;;2.10;;
8086;SDS011;4086;54.412;9.980;2022-08-01T08:53:50;6.07;;;1.97;;
8086;SDS011;4086;54.412;9.980;2022-08-01T08:56:19;4.47;;;2.10;;
8086;SDS011;4086;54.412;9.980;2022-08-01T08:58:45;3.60;;;1.63;;
8086;SDS011;4086;54.412;9.980;2022-08-01T09:01:12;7.50;;;1.90;;
8086;SDS011;4086;54.412;9.980;2022-08-01T09:03:39;4.23;;;1.73;;
8086;SDS011;4086;54.412;9.980;2022-08-01T09:06:06;5.90;;;2.03;;
8086;SDS011;4086;54.412;9.980;2022-08-01T09:08:33;5.13;;;1.73;;
8086;SDS011;4086;54.412;9.980;2022-08-01T09:10:59;5.20;;;1.80;;
8086;SDS011;4086;54.412;9.980;2022-08-01T09:13:27;3.60;;;1.67;;
8086;SDS011;4086;54.412;9.980;2022-08-01T09:15:54;2.83;;;1.50;;
8086;SDS011;4086;54.412;9.980;2022-08-01T09:18:25;4.10;;;1.50;;
8086;SDS011;4086;54.412;9.980;2022-08-01T09:21:06;4.30;;;1.40;;
8086;SDS011;4086;54.412;9.980;2022-08-01T09:23:39;3.70;;;1.70;;
8086;SDS011;4086;54.412;9.980;2022-08-01T09:26:07;4.73;;;1.53;;
8086;SDS011;4086;54.412;9.980;2022-08-01T09:28:35;4.40;;;1.40;;
8086;SDS011;4086;54.412;9.980;2022-08-01T09:31:06;3.63;;;1.47;;
8086;SDS011;4086;54.412;9.980;2022-08-01T09:33:46;2.97;;;1.20;;
8086;SDS011;4086;54.412;9.980;2022-08-01T09:36:17;4.17;;;1.30;;
8086;SDS011;4086;54.412;9.980;2022-08-01T09:38:43;3.53;;;1.20;;
8086;SDS011;4086;54.412;9.980;2022-08-01T09:41:10;3.30;;;1.50;;
8086;SDS011;4086;54.412;9.980;2022-08-01T09:43:38;3.53;;;1.50;;
8086;SDS011;4086;54.412;9.980;2022-08-01T09:46:05;2.27;;;1.57;;
8086;SDS011;4086;54.412;9.980;2022-08-01T09:48:35;4.83;;;1.80;;
8086;SDS011;4086;54.412;9.980;2022-08-01T09:51:04;4.47;;;1.67;;
8086;SDS011;4086;54.412;9.980;2022-08-01T09:53:39;4.47;;;1.50;;
8086;SDS011;4086;54.412;9.980;2022-08-01T09:56:10;3.77;;;1.40;;
8086;SDS011;4086;54.412;9.980;2022-08-01T09:58:52;2.30;;;1.20;;
8086;SDS011;4086;54.412;9.980;2022-08-01T10:01:20;3.97;;;1.63;;
8086;SDS011;4086;54.412;9.980;2022-08-01T10:03:47;3.07;;;1.40;;
8086;SDS011;4086;54.412;9.980;2022-08-01T10:06:30;3.37;;;1.50;;
8086;SDS011;4086;54.412;9.980;2022-08-01T10:08:56;2.50;;;1.47;;
8086;SDS011;4086;54.412;9.980;2022-08-01T10:11:23;4.00;;;1.93;;
8086;SDS011;4086;54.412;9.980;2022-08-01T10:13:50;3.37;;;1.30;;
8086;SDS011;4086;54.412;9.980;2022-08-01T10:16:18;1.97;;;1.23;;
8086;SDS011;4086;54.412;9.980;2022-08-01T10:18:45;3.77;;;1.60;;
8086;SDS011;4086;54.412;9.980;2022-08-01T10:21:12;3.43;;;1.20;;
8086;SDS011;4086;54.412;9.980;2022-08-01T10:23:39;4.40;;;1.60;;
8086;SDS011;4086;54.412;9.980;2022-08-01T10:26:07;7.07;;;1.67;;
8086;SDS011;4086;54.412;9.980;2022-08-01T10:28:36;3.07;;;1.23;;
8086;SDS011;4086;54.412;9.980;2022-08-01T10:31:04;3.10;;;1.40;;
8086;SDS011;4086;54.412;9.980;2022-08-01T10:33:32;2.67;;;1.40;;
8086;SDS011;4086;54.412;9.980;2022-08-01T10:35:58;4.90;;;1.67;;
8086;SDS011;4086;54.412;9.980;2022-08-01T10:38:25;3.70;;;1.67;;
8086;SDS011;4086;54.412;9.980;2022-08-01T10:40:52;3.63;;;1.60;;
8086;SDS011;4086;54.412;9.980;2022-08-01T10:43:20;3.90;;;1.60;;
8086;SDS011;4086;54.412;9.980;2022-08-01T10:45:46;3.57;;;1.67;;
8086;SDS011;4086;54.412;9.980;2022-08-01T10:48:16;4.67;;;1.60;;
8086;SDS011;4086;54.412;9.980;2022-08-01T10:50:45;3.93;;;1.60;;
8086;SDS011;4086;54.412;9.980;2022-08-01T10:53:13;4.90;;;1.80;;
8086;SDS011;4086;54.412;9.980;2022-08-01T10:55:45;3.93;;;1.30;;
8086;SDS011;4086;54.412;9.980;2022-08-01T10:58:12;3.40;;;1.47;;
8086;SDS011;4086;54.412;9.980;2022-08-01T11:00:38;2.67;;;1.27;;
8086;SDS011;4086;54.412;9.980;2022-08-01T11:03:05;2.37;;;1.20;;
8086;SDS011;4086;54.412;9.980;2022-08-01T11:05:33;2.53;;;1.20;;
8086;SDS011;4086;54.412;9.980;2022-08-01T11:08:01;4.63;;;1.53;;
8086;SDS011;4086;54.412;9.980;2022-08-01T11:10:31;2.33;;;1.23;;
8086;SDS011;4086;54.412;9.980;2022-08-01T11:13:01;2.60;;;1.50;;
8086;SDS011;4086;54.412;9.980;2022-08-01T11:15:30;4.77;;;1.50;;
8086;SDS011;4086;54.412;9.980;2022-08-01T11:18:00;4.20;;;1.33;;
8086;SDS011;4086;54.412;9.980;2022-08-01T11:20:29;3.63;;;1.63;;
8086;SDS011;4086;54.412;9.980;2022-08-01T11:26:06;3.13;;;1.33;;
8086;SDS011;4086;54.412;9.980;2022-08-01T11:28:36;2.67;;;1.15;;
8086;SDS011;4086;54.412;9.980;2022-08-01T11:33:55;2.50;;;1.10;;
8086;SDS011;4086;54.412;9.980;2022-08-01T11:36:21;3.60;;;1.70;;
8086;SDS011;4086;54.412;9.980;2022-08-01T11:38:50;3.20;;;1.37;;
8086;SDS011;4086;54.412;9.980;2022-08-01T11:41:38;3.50;;;1.70;;
8086;SDS011;4086;54.412;9.980;2022-08-01T11:44:05;2.73;;;1.40;;
8086;SDS011;4086;54.412;9.980;2022-08-01T11:46:48;2.17;;;1.45;;
8086;SDS011;4086;54.412;9.980;2022-08-01T11:49:29;1.05;;;1.00;;
8086;SDS011;4086;54.412;9.980;2022-08-01T11:52:26;3.38;;;1.25;;
8086;SDS011;4086;54.412;9.980;2022-08-01T11:54:56;2.33;;;1.38;;
8086;SDS011;4086;54.412;9.980;2022-08-01T11:57:24;6.75;;;1.65;;
8086;SDS011;4086;54.412;9.980;2022-08-01T11:59:52;2.22;;;1.15;;
8086;SDS011;4086;54.412;9.980;2022-08-01T12:02:23;2.25;;;1.40;;
8086;SDS011;4086;54.412;9.980;2022-08-01T12:04:53;1.58;;;1.27;;
8086;SDS011;4086;54.412;9.980;2022-08-01T12:07:20;2.08;;;1.17;;
8086;SDS011;4086;54.412;9.980;2022-08-01T12:09:48;2.03;;;1.45;;
8086;SDS011;4086;54.412;9.980;2022-08-01T12:12:17;1.42;;;1.33;;
8086;SDS011;4086;54.412;9.980;2022-08-01T12:14:44;5.15;;;1.48;;
8086;SDS011;4086;54.412;9.980;2022-08-01T12:17:11;2.35;;;1.58;;
8086;SDS011;4086;54.412;9.980;2022-08-01T12:19:38;2.53;;;1.40;;
8086;SDS011;4086;54.412;9.980;2022-08-01T12:22:07;1.48;;;1.10;;
8086;SDS011;4086;54.412;9.980;2022-08-01T12:24:35;1.75;;;1.27;;
8086;SDS011;4086;54.412;9.980;2022-08-01T12:27:02;2.92;;;1.38;;
8086;SDS011;4086;54.412;9.980;2022-08-01T12:29:45;1.67;;;1.50;;
8086;SDS011;4086;54.412;9.980;2022-08-01T12:34:58;1.58;;;1.30;;
8086;SDS011;4086;54.412;9.980;2022-08-01T12:37:27;5.03;;;1.40;;
8086;SDS011;4086;54.412;9.980;2022-08-01T12:39:53;2.25;;;1.27;;
8086;SDS011;4086;54.412;9.980;2022-08-01T12:42:20;1.63;;;1.42;;
8086;SDS011;4086;54.412;9.980;2022-08-01T12:44:49;4.53;;;1.45;;
8086;SDS011;4086;54.412;9.980;2022-08-01T12:47:17;2.80;;;1.48;;
8086;SDS011;4086;54.412;9.980;2022-08-01T12:49:44;3.05;;;1.48;;
8086;SDS011;4086;54.412;9.980;2022-08-01T12:52:11;2.50;;;1.20;;
8086;SDS011;4086;54.412;9.980;2022-08-01T12:57:26;1.92;;;1.60;;
8086;SDS011;4086;54.412;9.980;2022-08-01T12:59:55;1.77;;;1.38;;
8086;SDS011;4086;54.412;9.980;2022-08-01T13:02:31;3.67;;;1.40;;
8086;SDS011;4086;54.412;9.980;2022-08-01T13:04:58;4.13;;;1.50;;
8086;SDS011;4086;54.412;9.980;2022-08-01T13:07:34;3.13;;;1.30;;
8086;SDS011;4086;54.412;9.980;2022-08-01T13:10:01;3.38;;;1.55;;
8086;SDS011;4086;54.412;9.980;2022-08-01T13:12:27;4.03;;;1.50;;
8086;SDS011;4086;54.412;9.980;2022-08-01T13:14:55;6.15;;;1.45;;
8086;SDS011;4086;54.412;9.980;2022-08-01T13:17:31;2.20;;;1.58;;
8086;SDS011;4086;54.412;9.980;2022-08-01T13:19:58;3.17;;;1.67;;
8086;SDS011;4086;54.412;9.980;2022-08-01T13:22:31;3.35;;;1.50;;
8086;SDS011;4086;54.412;9.980;2022-08-01T13:25:08;1.80;;;1.40;;
8086;SDS011;4086;54.412;9.980;2022-08-01T13:27:35;4.40;;;1.38;;
8086;SDS011;4086;54.412;9.980;2022-08-01T13:30:11;2.53;;;1.30;;
8086;SDS011;4086;54.412;9.980;2022-08-01T13:32:39;5.60;;;1.75;;
8086;SDS011;4086;54.412;9.980;2022-08-01T13:35:06;3.45;;;1.70;;
8086;SDS011;4086;54.412;9.980;2022-08-01T13:37:34;3.17;;;1.50;;
8086;SDS011;4086;54.412;9.980;2022-08-01T13:40:01;2.25;;;1.67;;
8086;SDS011;4086;54.412;9.980;2022-08-01T13:42:27;4.43;;;1.43;;
8086;SDS011;4086;54.412;9.980;2022-08-01T13:44:54;4.28;;;1.42;;
8086;SDS011;4086;54.412;9.980;2022-08-01T13:47:22;4.68;;;1.70;;
8086;SDS011;4086;54.412;9.980;2022-08-01T13:49:48;3.85;;;1.73;;
8086;SDS011;4086;54.412;9.980;2022-08-01T13:52:15;3.93;;;1.70;;
8086;SDS011;4086;54.412;9.980;2022-08-01T13:54:41;4.57;;;1.73;;
8086;SDS011;4086;54.412;9.980;2022-08-01T13:57:08;3.93;;;1.70;;
8086;SDS011;4086;54.412;9.980;2022-08-01T13:59:34;4.50;;;1.48;;
8086;SDS011;4086;54.412;9.980;2022-08-01T14:02:00;3.92;;;1.42;;
8086;SDS011;4086;54.412;9.980;2022-08-01T14:04:28;3.00;;;1.60;;
8086;SDS011;4086;54.412;9.980;2022-08-01T14:06:55;2.77;;;1.50;;
8086;SDS011;4086;54.412;9.980;2022-08-01T14:09:21;2.58;;;1.75;;
8086;SDS011;4086;54.412;9.980;2022-08-01T14:11:48;3.43;;;1.60;;
8086;SDS011;4086;54.412;9.980;2022-08-01T14:14:15;3.73;;;1.50;;
8086;SDS011;4086;54.412;9.980;2022-08-01T14:16:41;2.37;;;1.60;;
8086;SDS011;4086;54.412;9.980;2022-08-01T14:19:09;3.23;;;1.27;;
8086;SDS011;4086;54.412;9.980;2022-08-01T14:21:37;2.90;;;1.50;;
8086;SDS011;4086;54.412;9.980;2022-08-01T14:24:03;3.08;;;1.42;;
8086;SDS011;4086;54.412;9.980;2022-08-01T14:26:31;2.07;;;1.27;;
8086;SDS011;4086;54.412;9.980;2022-08-01T14:28:57;3.13;;;1.20;;
8086;SDS011;4086;54.412;9.980;2022-08-01T14:31:24;5.27;;;1.50;;
8086;SDS011;4086;54.412;9.980;2022-08-01T14:33:50;5.27;;;1.83;;
8086;SDS011;4086;54.412;9.980;2022-08-01T14:36:17;3.47;;;1.50;;
8086;SDS011;4086;54.412;9.980;2022-08-01T14:38:45;4.60;;;1.63;;
8086;SDS011;4086;54.412;9.980;2022-08-01T14:41:12;3.03;;;1.20;;
8086;SDS011;4086;54.412;9.980;2022-08-01T14:43:38;4.83;;;1.50;;
8086;SDS011;4086;54.412;9.980;2022-08-01T14:46:05;3.80;;;1.30;;
8086;SDS011;4086;54.412;9.980;2022-08-01T14:48:34;4.30;;;1.60;;
8086;SDS011;4086;54.412;9.980;2022-08-01T14:51:01;4.80;;;1.70;;
8086;SDS011;4086;54.412;9.980;2022-08-01T14:53:27;1.97;;;1.20;;
8086;SDS011;4086;54.412;9.980;2022-08-01T14:55:55;2.73;;;1.47;;
8086;SDS011;4086;54.412;9.980;2022-08-01T14:58:22;4.72;;;1.50;;
8086;SDS011;4086;54.412;9.980;2022-08-01T15:00:48;4.43;;;1.70;;
8086;SDS011;4086;54.412;9.980;2022-08-01T15:03:19;2.83;;;1.37;;
8086;SDS011;4086;54.412;9.980;2022-08-01T15:05:45;4.37;;;1.50;;
8086;SDS011;4086;54.412;9.980;2022-08-01T15:08:12;2.07;;;1.43;;
8086;SDS011;4086;54.412;9.980;2022-08-01T15:10:38;2.80;;;1.27;;
8086;SDS011;4086;54.412;9.980;2022-08-01T15:13:06;3.13;;;1.47;;
8086;SDS011;4086;54.412;9.980;2022-08-01T15:15:34;5.73;;;1.50;;
8086;SDS011;4086;54.412;9.980;2022-08-01T15:18:00;3.13;;;1.47;;
8086;SDS011;4086;54.412;9.980;2022-08-01T15:20:26;3.63;;;1.60;;
8086;SDS011;4086;54.412;9.980;2022-08-01T15:22:53;2.47;;;1.30;;
8086;SDS011;4086;54.412;9.980;2022-08-01T15:25:20;3.40;;;1.40;;